createdAt,value
2019-03-10T00:00:30.629Z,2.80
2019-03-10T00:02:34.475Z,3.17
2019-03-10T00:04:38.367Z,3.43
2019-03-10T00:06:42.736Z,2.70
2019-03-10T00:08:46.645Z,4.37
2019-03-10T00:10:50.454Z,2.07
2019-03-10T00:12:54.431Z,2.50
2019-03-10T00:14:58.291Z,4.87
2019-03-10T00:17:02.224Z,2.80
2019-03-10T00:19:06.141Z,2.03
2019-03-10T00:21:09.934Z,3.33
2019-03-10T00:23:14.105Z,3.50
2019-03-10T00:25:18.282Z,3.87
2019-03-10T00:27:22.199Z,3.00
2019-03-10T00:29:26.140Z,2.30
2019-03-10T00:31:30.134Z,3.07
2019-03-10T00:33:34.079Z,2.50
2019-03-10T00:35:38.000Z,2.70
2019-03-10T00:37:41.931Z,2.63
2019-03-10T00:40:15.892Z,1.97
2019-03-10T00:42:56.185Z,2.63
2019-03-10T00:45:38.086Z,2.50
2019-03-10T00:48:29.157Z,3.50
2019-03-10T00:51:12.871Z,3.30
2019-03-10T00:53:16.715Z,3.70
2019-03-10T00:55:20.669Z,5.00
2019-03-10T00:57:29.492Z,4.10
2019-03-10T00:59:33.449Z,2.70
2019-03-10T01:01:37.246Z,2.43
2019-03-10T01:03:41.071Z,3.50
2019-03-10T01:05:44.930Z,2.60
2019-03-10T01:07:49.006Z,2.53
2019-03-10T01:09:52.891Z,3.57
2019-03-10T01:11:56.931Z,2.60
2019-03-10T01:14:01.144Z,2.60
2019-03-10T01:16:05.095Z,3.80
2019-03-10T01:18:10.324Z,2.70
2019-03-10T01:20:15.373Z,3.30
2019-03-10T01:22:19.243Z,2.80
2019-03-10T01:24:23.232Z,3.10
2019-03-10T01:26:27.091Z,2.90
2019-03-10T01:28:30.902Z,3.27
2019-03-10T01:30:42.216Z,3.83
2019-03-10T01:33:20.108Z,3.90
2019-03-10T01:35:27.611Z,3.73
2019-03-10T01:37:31.460Z,3.87
2019-03-10T01:39:35.295Z,3.63
2019-03-10T01:41:39.174Z,3.30
2019-03-10T01:43:43.032Z,3.87
2019-03-10T01:45:47.123Z,3.80
2019-03-10T01:47:50.991Z,3.00
2019-03-10T01:49:54.815Z,3.17
2019-03-10T01:51:58.578Z,3.10
2019-03-10T01:54:02.481Z,3.23
2019-03-10T01:56:06.364Z,3.60
2019-03-10T01:58:10.448Z,4.70
2019-03-10T02:00:15.860Z,3.17
2019-03-10T02:02:25.491Z,3.40
2019-03-10T02:04:25.450Z,3.90
2019-03-10T02:06:29.263Z,2.80
2019-03-10T02:08:33.157Z,5.33
2019-03-10T02:10:37.035Z,3.47
2019-03-10T02:12:40.880Z,4.03
2019-03-10T02:14:44.688Z,3.13
2019-03-10T02:16:48.747Z,3.63
2019-03-10T02:18:52.659Z,3.50
2019-03-10T02:20:56.462Z,4.00
2019-03-10T02:23:00.507Z,2.97
2019-03-10T02:25:04.719Z,3.07
2019-03-10T02:27:08.672Z,3.00
2019-03-10T02:29:12.622Z,3.37
2019-03-10T02:31:16.648Z,3.33
2019-03-10T02:33:20.499Z,2.83
2019-03-10T02:35:24.371Z,3.50
2019-03-10T02:37:28.231Z,3.37
2019-03-10T02:39:32.137Z,4.00
2019-03-10T02:41:39.008Z,3.50
2019-03-10T02:43:46.520Z,3.37
2019-03-10T02:45:49.908Z,4.10
2019-03-10T02:47:55.607Z,3.70
2019-03-10T02:49:59.649Z,4.57
2019-03-10T02:52:04.986Z,3.73
2019-03-10T02:54:10.286Z,4.20
2019-03-10T02:56:14.180Z,4.70
2019-03-10T02:58:17.963Z,3.67
2019-03-10T03:00:21.823Z,4.23
2019-03-10T03:02:25.704Z,3.53
2019-03-10T03:04:29.574Z,3.53
2019-03-10T03:06:33.371Z,3.23
2019-03-10T03:08:37.339Z,3.60
2019-03-10T03:10:41.242Z,4.70
2019-03-10T03:12:45.095Z,4.90
2019-03-10T03:14:49.071Z,5.30
2019-03-10T03:16:53.032Z,3.40
2019-03-10T03:18:56.926Z,3.87
2019-03-10T03:21:00.816Z,3.40
2019-03-10T03:23:04.683Z,4.60
2019-03-10T03:25:08.868Z,5.10
2019-03-10T03:27:12.924Z,5.20
2019-03-10T03:29:16.739Z,4.20
2019-03-10T03:31:20.535Z,4.90
2019-03-10T03:33:24.422Z,5.30
2019-03-10T03:35:48.377Z,3.77
2019-03-10T03:37:52.387Z,4.07
2019-03-10T03:39:57.228Z,4.00
2019-03-10T03:42:01.333Z,5.63
2019-03-10T03:44:05.252Z,5.80
2019-03-10T03:46:09.112Z,3.87
2019-03-10T03:48:12.916Z,4.60
2019-03-10T03:50:16.734Z,4.60
2019-03-10T03:52:20.629Z,3.67
2019-03-10T03:54:24.468Z,5.07
2019-03-10T03:56:28.426Z,4.93
2019-03-10T03:58:32.403Z,5.30
2019-03-10T04:00:36.432Z,4.30
2019-03-10T04:02:40.403Z,4.20
2019-03-10T04:04:44.645Z,5.43
2019-03-10T04:06:48.694Z,4.73
2019-03-10T04:08:52.479Z,3.17
2019-03-10T04:10:56.579Z,3.93
2019-03-10T04:13:03.618Z,4.43
2019-03-10T04:15:07.604Z,4.33
2019-03-10T04:17:11.731Z,3.80
2019-03-10T04:19:15.531Z,5.23
2019-03-10T04:21:19.503Z,3.50
2019-03-10T04:23:23.492Z,3.50
2019-03-10T04:25:27.340Z,4.37
2019-03-10T04:27:31.391Z,3.10
2019-03-10T04:29:35.212Z,3.43
2019-03-10T04:31:39.100Z,3.60
2019-03-10T04:33:42.918Z,4.17
2019-03-10T04:35:46.860Z,2.50
2019-03-10T04:37:50.918Z,3.97
2019-03-10T04:39:54.694Z,3.30
2019-03-10T04:41:58.534Z,3.20
2019-03-10T04:44:02.580Z,4.73
2019-03-10T04:46:06.609Z,3.53
2019-03-10T04:48:15.254Z,3.40
2019-03-10T04:50:20.574Z,3.90
2019-03-10T04:52:25.625Z,3.73
2019-03-10T04:54:54.916Z,3.70
2019-03-10T04:57:12.268Z,3.57
2019-03-10T04:59:16.083Z,2.47
2019-03-10T05:01:20.372Z,3.13
2019-03-10T05:03:24.313Z,3.50
2019-03-10T05:05:28.350Z,3.03
2019-03-10T05:07:32.208Z,4.87
2019-03-10T05:09:36.349Z,3.30
2019-03-10T05:11:40.151Z,5.50
2019-03-10T05:13:44.031Z,3.30
2019-03-10T05:15:47.895Z,3.70
2019-03-10T05:17:51.902Z,4.10
2019-03-10T05:19:55.707Z,3.80
2019-03-10T05:21:59.623Z,3.40
2019-03-10T05:24:10.563Z,3.40
2019-03-10T05:26:15.679Z,4.90
2019-03-10T05:28:19.463Z,2.90
2019-03-10T05:30:23.238Z,3.83
2019-03-10T05:32:30.194Z,3.50
2019-03-10T05:34:36.097Z,3.60
2019-03-10T05:36:40.205Z,3.50
2019-03-10T05:38:44.399Z,4.77
2019-03-10T05:40:48.605Z,3.23
2019-03-10T05:42:52.475Z,2.80
2019-03-10T05:44:56.293Z,3.00
2019-03-10T05:47:00.400Z,2.60
2019-03-10T05:49:04.277Z,3.20
2019-03-10T05:51:08.147Z,2.93
2019-03-10T05:53:12.105Z,2.97
2019-03-10T05:55:16.059Z,2.50
2019-03-10T05:57:20.065Z,2.87
2019-03-10T05:59:24.219Z,2.43
2019-03-10T06:01:28.284Z,3.83
2019-03-10T06:03:35.373Z,3.53
2019-03-10T06:05:39.307Z,3.07
2019-03-10T06:07:43.168Z,3.03
2019-03-10T06:09:47.015Z,3.80
2019-03-10T06:11:51.082Z,3.00
2019-03-10T06:13:54.878Z,3.23
2019-03-10T06:15:59.067Z,3.20
2019-03-10T06:18:13.002Z,5.30
2019-03-10T06:20:08.615Z,3.60
2019-03-10T06:22:12.459Z,2.80
2019-03-10T06:24:16.520Z,2.97
2019-03-10T06:26:20.428Z,3.10
2019-03-10T06:28:24.235Z,3.00
2019-03-10T06:30:28.280Z,3.53
2019-03-10T06:32:32.173Z,3.23
2019-03-10T06:34:37.531Z,3.30
2019-03-10T06:36:41.339Z,3.60
2019-03-10T06:38:45.374Z,4.03
2019-03-10T06:40:51.014Z,3.40
2019-03-10T06:42:55.003Z,3.80
2019-03-10T06:44:58.999Z,3.60
2019-03-10T06:47:02.856Z,4.30
2019-03-10T06:49:06.905Z,4.50
2019-03-10T06:51:10.719Z,3.63
2019-03-10T06:53:14.795Z,4.80
2019-03-10T06:55:18.760Z,4.57
2019-03-10T06:57:22.614Z,4.20
2019-03-10T06:59:26.412Z,4.53
2019-03-10T07:01:30.351Z,4.10
2019-03-10T07:03:34.275Z,4.90
2019-03-10T07:05:38.079Z,4.73
2019-03-10T07:07:41.983Z,4.33
2019-03-10T07:09:45.853Z,4.37
2019-03-10T07:11:49.624Z,5.10
2019-03-10T07:13:53.492Z,3.47
2019-03-10T07:15:57.282Z,4.27
2019-03-10T07:18:01.198Z,4.07
2019-03-10T07:20:06.015Z,4.70
2019-03-10T07:22:09.838Z,4.53
2019-03-10T07:24:13.633Z,4.83
2019-03-10T07:26:17.565Z,5.40
2019-03-10T07:28:29.891Z,5.50
2019-03-10T07:30:58.925Z,5.57
2019-03-10T07:33:16.260Z,4.67
2019-03-10T07:36:29.482Z,5.60
2019-03-10T07:38:34.848Z,5.70
2019-03-10T07:41:19.021Z,4.90
2019-03-10T07:43:45.693Z,5.33
2019-03-10T07:46:17.210Z,6.10
2019-03-10T07:48:58.136Z,6.53
2019-03-10T07:51:19.968Z,5.57
2019-03-10T07:53:38.954Z,7.30
2019-03-10T07:56:06.616Z,6.20
2019-03-10T07:58:47.975Z,7.30
2019-03-10T08:01:15.115Z,6.10
2019-03-10T08:04:01.660Z,6.70
2019-03-10T08:07:06.199Z,7.23
2019-03-10T08:09:51.037Z,6.67
2019-03-10T08:12:19.546Z,6.67
2019-03-10T08:15:09.770Z,10.17
2019-03-10T08:18:09.096Z,7.83
2019-03-10T08:20:38.503Z,9.50
2019-03-10T08:23:21.682Z,8.13
2019-03-10T08:25:56.878Z,9.17
2019-03-10T08:28:41.928Z,8.03
2019-03-10T08:31:03.012Z,9.57
2019-03-10T08:33:24.935Z,8.70
2019-03-10T08:36:09.280Z,7.93
2019-03-10T08:38:40.306Z,9.40
2019-03-10T08:41:03.172Z,7.40
2019-03-10T08:43:24.926Z,6.80
2019-03-10T08:45:37.919Z,6.23
2019-03-10T08:48:04.004Z,6.10
2019-03-10T08:50:39.057Z,3.37
2019-03-10T09:00:22.718Z,2.53
2019-03-10T09:03:44.923Z,2.17
2019-03-10T09:09:49.403Z,2.10
2019-03-10T09:12:31.408Z,1.63
2019-03-10T09:21:06.462Z,2.20
2019-03-10T09:24:06.705Z,2.03
2019-03-10T09:26:25.435Z,2.17
2019-03-10T09:29:16.687Z,1.93
2019-03-10T09:31:36.367Z,1.50
2019-03-10T09:34:03.240Z,1.53
2019-03-10T09:37:12.709Z,1.60
2019-03-10T09:43:01.740Z,1.67
2019-03-10T09:49:13.279Z,1.67
2019-03-10T09:54:01.023Z,1.30
2019-03-10T09:58:29.556Z,1.30
2019-03-10T10:13:56.944Z,2.10
2019-03-10T10:17:06.937Z,1.20
2019-03-10T10:23:01.038Z,1.97
2019-03-10T10:33:30.832Z,1.20
2019-03-10T10:36:17.235Z,1.63
2019-03-10T11:02:23.799Z,1.23
2019-03-10T11:04:58.208Z,2.07
2019-03-10T11:08:11.606Z,1.00
2019-03-10T11:13:43.576Z,1.03
2019-03-10T11:16:25.118Z,0.93
2019-03-10T11:19:36.538Z,1.10
2019-03-10T11:22:32.951Z,1.20
2019-03-10T11:24:58.190Z,1.17
2019-03-10T11:27:54.578Z,1.00
2019-03-10T11:30:29.429Z,1.77
2019-03-10T11:33:38.310Z,2.90
2019-03-10T11:39:46.887Z,1.20
2019-03-10T11:41:56.661Z,1.00
2019-03-10T11:44:42.520Z,1.27
2019-03-10T11:46:48.806Z,1.27
2019-03-10T11:50:08.410Z,1.43
2019-03-10T11:56:50.934Z,1.30
2019-03-10T12:03:13.707Z,2.23
2019-03-10T12:16:21.186Z,1.50
2019-03-10T12:32:04.767Z,3.47
2019-03-10T12:34:21.329Z,5.67
2019-03-10T12:36:53.357Z,2.53
2019-03-10T12:39:01.270Z,2.40
2019-03-10T12:41:16.324Z,2.17
2019-03-10T12:43:30.231Z,2.90
2019-03-10T12:45:49.611Z,3.30
2019-03-10T12:47:51.428Z,2.60
2019-03-10T12:50:04.802Z,4.00
2019-03-10T12:52:09.012Z,3.47
2019-03-10T12:54:24.755Z,3.67
2019-03-10T12:56:28.777Z,4.63
2019-03-10T12:58:39.363Z,4.30
2019-03-10T13:01:06.122Z,4.33
2019-03-10T13:19:39.023Z,5.40
2019-03-10T13:21:43.453Z,6.17
2019-03-10T13:23:47.544Z,5.50
2019-03-10T13:25:53.977Z,5.53
2019-03-10T13:27:58.064Z,5.97
2019-03-10T13:30:02.266Z,5.87
2019-03-10T13:32:06.254Z,5.77
2019-03-10T13:34:10.226Z,5.50
2019-03-10T13:36:14.736Z,6.50
2019-03-10T13:38:27.819Z,5.97
2019-03-10T13:40:50.820Z,5.17
2019-03-10T13:43:36.410Z,6.33
2019-03-10T13:45:47.758Z,7.30
2019-03-10T13:47:49.728Z,9.27
2019-03-10T13:49:55.129Z,9.83
2019-03-10T13:52:34.972Z,6.23
2019-03-10T14:03:38.839Z,3.00
2019-03-10T14:20:45.452Z,2.60
2019-03-10T14:22:49.792Z,1.77
2019-03-10T14:25:01.619Z,3.37
2019-03-10T14:27:11.759Z,2.30
2019-03-10T14:29:54.778Z,1.67
2019-03-10T14:32:03.507Z,1.00
2019-03-10T14:45:09.954Z,1.70
2019-03-10T14:45:11.548Z,2.13
2019-03-10T14:47:57.955Z,1.50
2019-03-10T14:50:15.289Z,1.90
2019-03-10T14:58:27.613Z,2.30
2019-03-10T15:10:33.341Z,1.70
2019-03-10T15:13:13.654Z,1.73
2019-03-10T15:15:24.751Z,2.03
2019-03-10T15:17:47.765Z,1.53
2019-03-10T15:20:25.046Z,1.60
2019-03-10T15:23:02.575Z,2.00
2019-03-10T15:28:58.708Z,1.40
2019-03-10T15:31:13.500Z,1.67
2019-03-10T15:37:45.933Z,1.20
2019-03-10T15:56:29.127Z,1.20
2019-03-10T15:56:39.867Z,1.37
2019-03-10T16:06:51.049Z,1.03
2019-03-10T16:09:43.812Z,0.80
2019-03-10T16:18:02.178Z,0.80
2019-03-10T16:20:18.591Z,0.60
2019-03-10T16:22:34.733Z,0.70
2019-03-10T16:25:09.944Z,0.60
2019-03-10T16:27:22.956Z,1.10
2019-03-10T16:29:40.266Z,0.60
2019-03-10T16:32:12.030Z,1.50
2019-03-10T16:34:22.904Z,1.47
2019-03-10T16:36:28.207Z,1.47
2019-03-10T16:38:51.969Z,1.50
2019-03-10T16:41:22.129Z,1.40
2019-03-10T16:43:42.536Z,0.90
2019-03-10T16:46:04.724Z,0.90
2019-03-10T16:48:08.972Z,0.73
2019-03-10T16:50:52.488Z,1.30
2019-03-10T16:52:50.790Z,0.70
2019-03-10T16:55:34.422Z,0.90
2019-03-10T17:01:19.013Z,0.80
2019-03-10T17:04:10.054Z,6.50
2019-03-10T17:06:25.445Z,7.43
2019-03-10T17:08:29.946Z,3.40
2019-03-10T17:10:39.436Z,3.13
2019-03-10T17:12:49.573Z,3.00
2019-03-10T17:17:44.872Z,1.37
2019-03-10T17:19:42.773Z,1.50
2019-03-10T17:36:42.596Z,1.30
2019-03-10T17:41:38.433Z,3.17
2019-03-10T17:43:59.492Z,2.10
2019-03-10T17:46:57.107Z,2.33
2019-03-10T17:54:32.754Z,1.70
2019-03-10T17:56:48.047Z,2.10
2019-03-10T17:58:59.307Z,1.47
2019-03-10T18:01:15.416Z,1.80
2019-03-10T18:03:23.015Z,2.10
2019-03-10T18:05:29.939Z,2.90
2019-03-10T18:07:33.802Z,2.80
2019-03-10T18:09:37.867Z,8.40
2019-03-10T18:11:44.639Z,3.43
2019-03-10T18:13:48.619Z,2.80
2019-03-10T18:16:08.759Z,5.67
2019-03-10T18:18:19.209Z,9.33
2019-03-10T18:20:24.995Z,3.57
2019-03-10T18:22:41.477Z,6.20
2019-03-10T18:24:58.456Z,4.27
2019-03-10T18:29:50.492Z,4.13
2019-03-10T18:32:21.868Z,4.50
2019-03-10T18:34:38.502Z,2.23
2019-03-10T18:37:32.839Z,3.53
2019-03-10T18:39:57.117Z,8.17
2019-03-10T18:42:22.979Z,3.60
2019-03-10T18:44:55.224Z,2.50
2019-03-10T18:47:12.863Z,3.43
2019-03-10T18:49:58.099Z,3.30
2019-03-10T18:52:30.255Z,2.90
2019-03-10T18:54:39.333Z,3.90
2019-03-10T18:56:59.919Z,2.20
2019-03-10T18:59:19.904Z,2.30
2019-03-10T19:01:30.958Z,2.60
2019-03-10T19:03:56.594Z,2.77
2019-03-10T19:06:29.895Z,2.20
2019-03-10T19:09:02.411Z,2.50
2019-03-10T19:11:37.812Z,2.90
2019-03-10T19:13:51.806Z,2.20
2019-03-10T19:16:20.034Z,2.60
2019-03-10T19:18:35.250Z,2.33
2019-03-10T19:20:45.124Z,2.50
2019-03-10T19:23:13.215Z,3.73
2019-03-10T19:25:23.126Z,2.87
2019-03-10T19:27:51.904Z,3.60
2019-03-10T19:29:59.629Z,2.67
2019-03-10T19:32:08.706Z,2.43
2019-03-10T19:34:22.337Z,2.63
2019-03-10T19:36:32.376Z,2.90
2019-03-10T19:39:02.358Z,3.30
2019-03-10T19:41:47.956Z,3.90
2019-03-10T19:44:52.408Z,3.63
2019-03-10T19:47:58.260Z,7.10
2019-03-10T19:56:42.664Z,2.67
2019-03-10T19:59:39.063Z,3.20
2019-03-10T20:06:28.864Z,5.00
2019-03-10T20:08:50.214Z,4.07
2019-03-10T20:11:11.394Z,3.97
2019-03-10T20:13:35.851Z,5.10
2019-03-10T20:16:11.396Z,5.40
2019-03-10T20:18:33.550Z,4.97
2019-03-10T20:21:31.989Z,5.03
2019-03-10T20:24:30.769Z,4.70
2019-03-10T20:41:44.139Z,5.70
2019-03-10T20:44:39.117Z,7.43
2019-03-10T20:46:54.976Z,5.87
2019-03-10T20:53:48.640Z,5.40
2019-03-10T22:19:23.154Z,2.43
2019-03-10T22:21:36.537Z,1.73
2019-03-10T22:37:41.080Z,2.87
2019-03-10T22:52:52.214Z,2.20
2019-03-10T22:55:33.036Z,1.50
2019-03-10T22:57:58.988Z,1.83
2019-03-10T23:00:24.925Z,2.33
2019-03-10T23:03:17.021Z,1.73
2019-03-10T23:06:16.140Z,1.77
2019-03-10T23:08:59.872Z,2.10
2019-03-10T23:46:13.348Z,2.27
2019-03-10T23:48:13.709Z,1.93
2019-03-10T23:51:26.280Z,1.90
